Time;durP1;ratioP1;P1;durP2;ratioP2;P2;SDS_P1;SDS_P2;PMS_P1;PMS_P2;Temp;Humidity;BMP_temperature;BMP_pressure;BME280_temperature;BME280_humidity;BME280_pressure;Samples;Min_cycle;Max_cycle;Signal;HPM_P1;HPM_P2
2022/09/14 00:01:19;;;;;;;9.70;4.68;;;;;;;23.85;42.91;94848.66;5003845;28;20137;-69
2022/09/14 00:03:44;;;;;;;8.43;4.28;;;;;;;23.89;43.28;94856.03;5004193;28;20034;-69
2022/09/14 00:06:12;;;;;;;5.38;3.92;;;;;;;23.93;43.17;94870.09;4993554;28;20442;-67
2022/09/14 00:08:38;;;;;;;5.22;3.90;;;;;;;23.66;43.34;94831.53;5000098;28;20061;-67
2022/09/14 00:11:08;;;;;;;6.03;4.00;;;;;;;23.91;43.03;94864.41;5003704;28;20526;-68
2022/09/14 00:13:34;;;;;;;5.90;4.25;;;;;;;23.86;43.00;94865.22;5003872;28;20038;-71
2022/09/14 00:16:07;;;;;;;8.93;4.35;;;;;;;23.72;43.36;94834.94;5003448;28;20588;-69
2022/09/14 00:18:33;;;;;;;5.85;4.13;;;;;;;23.84;42.83;94853.38;5003788;28;20041;-69
2022/09/14 00:21:03;;;;;;;4.70;4.20;;;;;;;23.87;43.39;94874.91;4977419;28;20038;-71
2022/09/14 00:23:29;;;;;;;5.80;3.97;;;;;;;23.90;42.98;94868.41;4975006;28;20502;-69
2022/09/14 00:25:54;;;;;;;6.60;4.00;;;;;;;23.87;42.90;94853.09;5003064;28;20096;-68
2022/09/14 00:28:20;;;;;;;6.00;4.00;;;;;;;23.85;43.09;94848.66;5003834;28;20518;-69
2022/09/14 00:30:46;;;;;;;6.07;3.85;;;;;;;23.81;43.24;94842.75;5004025;28;20030;-67
2022/09/14 00:33:12;;;;;;;4.47;3.80;;;;;;;23.91;43.20;94864.41;5002647;28;20057;-70
2022/09/14 00:35:37;;;;;;;4.70;3.75;;;;;;;23.97;43.22;94864.34;5003405;28;20046;-69
2022/09/14 00:38:03;;;;;;;4.43;3.60;;;;;;;23.80;43.11;94846.75;4986739;28;20049;-68
2022/09/14 00:40:28;;;;;;;4.88;4.10;;;;;;;23.72;43.13;94835.69;4976459;28;20542;-67
2022/09/14 00:42:54;;;;;;;7.90;4.30;;;;;;;23.99;43.11;94876.22;4983703;28;20037;-68
2022/09/14 00:45:23;;;;;;;4.28;3.47;;;;;;;23.49;43.02;94817.38;5003328;28;20414;-67
2022/09/14 00:47:49;;;;;;;4.53;3.70;;;;;;;23.95;42.96;94873.06;4985065;28;20034;-66
2022/09/14 00:50:15;;;;;;;5.00;3.67;;;;;;;23.66;42.89;94834.28;4986007;28;20065;-69
2022/09/14 00:52:41;;;;;;;4.68;3.38;;;;;;;23.50;42.53;94840.66;4985401;28;20072;-66
2022/09/14 00:55:10;;;;;;;6.47;3.60;;;;;;;23.54;42.89;94822.75;4985400;28;20029;-70
2022/09/14 00:57:47;;;;;;;5.15;3.63;;;;;;;23.91;43.13;94874.59;4986154;28;20034;-69
2022/09/14 01:00:15;;;;;;;4.20;3.20;;;;;;;23.84;42.99;94885.34;4985938;28;20030;-70
2022/09/14 01:02:41;;;;;;;4.25;3.10;;;;;;;23.23;42.86;94898.91;4987833;28;20507;-65
2022/09/14 01:05:07;;;;;;;5.70;3.25;;;;;;;23.07;43.00;94897.09;5000975;28;20034;-65
2022/09/14 01:07:57;;;;;;;3.25;2.67;;;;;;;22.84;42.79;94867.06;4965050;28;20042;-62
2022/09/14 01:10:27;;;;;;;4.55;2.85;;;;;;;22.91;42.94;94895.25;4987339;28;20123;-63
2022/09/14 01:13:19;;;;;;;3.90;2.85;;;;;;;22.76;42.98;94887.94;4984636;28;20087;-64
2022/09/14 01:16:26;;;;;;;4.47;3.20;;;;;;;22.68;42.74;94903.38;5001554;28;20053;-65
2022/09/14 01:18:59;;;;;;;4.72;2.90;;;;;;;21.92;42.80;94801.97;4956283;28;20075;-63
2022/09/14 01:21:36;;;;;;;4.00;2.83;;;;;;;22.42;42.45;94886.75;4985222;28;20064;-64
2022/09/14 01:24:19;;;;;;;3.45;2.60;;;;;;;22.44;42.42;94890.41;4969493;28;20041;-61
2022/09/14 01:27:00;;;;;;;5.38;2.80;;;;;;;22.40;42.55;94889.22;5001568;28;20034;-61
2022/09/14 01:29:29;;;;;;;5.32;2.72;;;;;;;22.18;42.64;94870.31;5002597;28;20523;-61
2022/09/14 01:31:59;;;;;;;3.22;2.25;;;;;;;22.24;42.63;94887.34;4984397;28;20048;-64
2022/09/14 01:34:33;;;;;;;4.40;2.72;;;;;;;22.21;42.62;94882.94;4984698;28;20065;-70
2022/09/14 01:37:11;;;;;;;4.20;2.50;;;;;;;22.03;42.84;94872.63;5002016;28;20092;-66
2022/09/14 01:39:42;;;;;;;5.07;2.45;;;;;;;21.82;42.78;94840.13;4969724;28;20465;-62
2022/09/14 01:42:07;;;;;;;5.05;2.60;;;;;;;22.01;42.82;94880.53;4968734;28;20132;-69
2022/09/14 01:44:36;;;;;;;3.85;2.53;;;;;;;21.97;42.56;94880.06;4984651;28;20054;-65
2022/09/14 01:47:39;;;;;;;3.17;2.30;;;;;;;21.97;42.88;94880.06;4984410;28;20045;-64
2022/09/14 01:50:14;;;;;;;3.50;2.42;;;;;;;21.97;42.88;94890.94;4959709;28;20097;-69
2022/09/14 01:52:48;;;;;;;3.38;2.45;;;;;;;21.91;43.46;94897.63;4959266;28;20050;-64
2022/09/14 01:55:42;;;;;;;2.85;2.50;;;;;;;21.55;43.19;94854.56;4965624;28;20042;-69
2022/09/14 01:58:11;;;;;;;4.30;2.30;;;;;;;21.80;43.18;94886.81;4984566;28;21984;-66
2022/09/14 02:00:41;;;;;;;4.82;2.53;;;;;;;21.40;43.00;94816.09;4966013;28;20013;-70
2022/09/14 02:03:16;;;;;;;3.22;2.15;;;;;;;21.23;42.69;94801.13;4974558;28;20030;-64
2022/09/14 02:05:55;;;;;;;3.15;2.40;;;;;;;21.61;42.94;94858.78;4968285;28;20026;-64
2022/09/14 02:08:21;;;;;;;3.33;2.60;;;;;;;21.44;43.11;94827.44;4971669;28;20042;-67
2022/09/14 02:10:46;;;;;;;2.95;2.60;;;;;;;21.63;43.33;94866.41;4970798;28;20025;-64
2022/09/14 02:13:12;;;;;;;3.08;2.50;;;;;;;21.60;43.19;94851.13;5001824;28;20041;-67
2022/09/14 02:15:38;;;;;;;3.92;2.78;;;;;;;21.67;43.38;94888.63;4985073;28;20045;-64
2022/09/14 02:18:03;;;;;;;3.38;2.30;;;;;;;21.64;43.16;94884.19;4983523;28;20427;-63
2022/09/14 02:20:39;;;;;;;3.60;2.28;;;;;;;21.51;43.33;94865.00;5002107;28;20879;-68
2022/09/14 02:23:05;;;;;;;2.83;2.40;;;;;;;21.48;43.19;94871.41;4968310;28;20057;-64
2022/09/14 02:25:31;;;;;;;3.58;2.50;;;;;;;21.62;43.18;94881.22;4985283;28;20096;-70
2022/09/14 02:27:56;;;;;;;3.42;2.55;;;;;;;21.48;43.22;94871.41;4973889;28;20026;-64
2022/09/14 02:30:22;;;;;;;2.60;2.40;;;;;;;21.55;43.38;94887.19;5006566;28;20022;-64
2022/09/14 02:32:58;;;;;;;3.00;2.38;;;;;;;21.52;43.19;94874.59;4987108;28;20089;-66
2022/09/14 02:35:50;;;;;;;3.95;2.42;;;;;;;21.58;43.24;94880.75;4977008;28;20394;-66
2022/09/14 02:38:28;;;;;;;2.97;2.40;;;;;;;21.51;43.31;94881.28;4960736;28;20046;-69
2022/09/14 02:40:59;;;;;;;4.40;2.50;;;;;;;21.14;43.45;94851.00;4974308;28;20038;-68
2022/09/14 02:43:37;;;;;;;3.78;2.58;;;;;;;21.39;43.54;94885.25;4989726;28;20053;-67
2022/09/14 02:46:12;;;;;;;3.92;2.35;;;;;;;21.42;43.36;94894.38;5005077;28;20227;-64
2022/09/14 02:48:49;;;;;;;3.33;2.90;;;;;;;21.05;43.14;94834.97;4988782;28;20360;-63
2022/09/14 02:51:24;;;;;;;3.17;2.60;;;;;;;21.25;43.57;94880.81;4978698;28;20042;-62
2022/09/14 02:53:53;;;;;;;4.40;2.40;;;;;;;21.37;43.50;94890.41;4981160;28;20072;-64
2022/09/14 02:56:19;;;;;;;4.07;2.17;;;;;;;21.04;43.58;94849.78;4988208;28;20061;-69
2022/09/14 02:58:44;;;;;;;5.47;2.58;;;;;;;21.30;43.53;94882.81;5005504;28;20507;-66
2022/09/14 03:01:12;;;;;;;2.58;2.35;;;;;;;20.81;43.17;94806.91;4995222;28;20042;-70
2022/09/14 03:03:37;;;;;;;3.28;2.50;;;;;;;21.34;43.49;94899.56;4985515;28;20479;-67
2022/09/14 03:06:03;;;;;;;3.60;2.65;;;;;;;21.12;43.78;94877.91;4987917;28;20032;-70
2022/09/14 03:08:29;;;;;;;3.88;2.40;;;;;;;21.23;43.44;94899.59;5005423;28;20045;-69
2022/09/14 03:10:54;;;;;;;3.13;2.38;;;;;;;21.14;43.92;94891.72;5005248;28;20034;-70
2022/09/14 03:13:20;;;;;;;3.40;2.53;;;;;;;21.09;43.78;94872.72;5005141;28;20049;-69
2022/09/14 03:15:45;;;;;;;2.58;2.33;;;;;;;20.97;43.76;94888.31;5005289;28;20042;-66
2022/09/14 03:18:11;;;;;;;3.80;2.35;;;;;;;21.03;43.67;94872.75;5004100;28;20507;-69
2022/09/14 03:20:36;;;;;;;3.80;2.45;;;;;;;21.15;43.59;94882.34;4987603;28;20038;-63
2022/09/14 03:23:02;;;;;;;3.65;2.47;;;;;;;21.22;43.70;94898.13;4996507;28;20041;-68
2022/09/14 03:25:28;;;;;;;3.78;2.60;;;;;;;20.96;43.77;94852.78;4999265;28;20041;-65
2022/09/14 03:27:56;;;;;;;4.53;2.80;;;;;;;20.97;43.95;94866.59;4998280;28;20415;-70
2022/09/14 03:30:21;;;;;;;3.17;2.70;;;;;;;21.18;43.84;94897.66;4998237;28;20101;-65
2022/09/14 03:32:47;;;;;;;3.13;2.53;;;;;;;21.08;43.62;94872.00;4999086;28;20150;-68
2022/09/14 03:35:12;;;;;;;3.63;2.78;;;;;;;21.15;43.74;94890.50;4995005;28;20458;-64
2022/09/14 03:37:38;;;;;;;4.35;2.58;;;;;;;21.09;43.58;94884.34;5001171;28;20117;-64
2022/09/14 03:40:04;;;;;;;6.57;2.60;;;;;;;20.66;43.90;94819.25;4993429;28;20264;-67
2022/09/14 03:42:30;;;;;;;3.33;2.80;;;;;;;21.11;43.99;94892.72;5004341;28;20544;-69
2022/09/14 03:44:55;;;;;;;3.47;2.80;;;;;;;21.08;44.08;94887.56;5004445;28;20033;-70
2022/09/14 03:47:21;;;;;;;4.43;2.78;;;;;;;20.95;44.19;94873.03;5004075;28;20184;-68
2022/09/14 03:49:47;;;;;;;3.08;2.65;;;;;;;21.04;44.15;94887.78;5003807;28;20172;-69
2022/09/14 03:52:12;;;;;;;3.47;2.58;;;;;;;20.43;44.21;94806.94;5003902;28;20053;-66
2022/09/14 03:54:37;;;;;;;5.63;2.60;;;;;;;20.97;44.18;94888.31;5004816;28;20038;-68
2022/09/14 03:57:03;;;;;;;4.55;2.60;;;;;;;20.71;44.22;94853.81;4986018;28;20053;-69
2022/09/14 03:59:29;;;;;;;4.07;2.80;;;;;;;20.98;44.19;94906.09;5004120;28;20038;-70
2022/09/14 04:01:54;;;;;;;3.80;2.80;;;;;;;20.77;44.18;94857.25;4989672;28;20049;-69
2022/09/14 04:04:20;;;;;;;4.93;2.95;;;;;;;20.49;44.34;94837.50;5003938;28;20427;-69
2022/09/14 04:06:46;;;;;;;3.13;2.60;;;;;;;20.86;44.33;94897.69;5004008;28;20061;-69
2022/09/14 04:09:11;;;;;;;4.05;2.75;;;;;;;20.95;44.47;94900.16;5004116;28;20073;-69
2022/09/14 04:11:37;;;;;;;4.85;2.50;;;;;;;20.87;44.21;94888.34;5003850;28;20762;-67
2022/09/14 04:14:03;;;;;;;3.47;2.30;;;;;;;20.92;44.32;94895.72;5003692;28;20041;-70
2022/09/14 04:16:28;;;;;;;4.05;2.70;;;;;;;20.80;44.17;94883.41;5003093;28;20161;-68
2022/09/14 04:18:54;;;;;;;3.53;2.85;;;;;;;20.83;44.49;94890.56;4998471;28;20022;-71
2022/09/14 04:21:21;;;;;;;3.63;2.58;;;;;;;20.79;44.53;94884.63;4984026;28;20487;-70
2022/09/14 04:23:46;;;;;;;3.92;2.60;;;;;;;20.77;44.49;94884.38;4984338;28;20043;-70
2022/09/14 04:26:15;;;;;;;3.60;2.80;;;;;;;20.89;44.47;94902.13;5004177;28;20728;-70
2022/09/14 04:28:40;;;;;;;5.05;2.88;;;;;;;20.39;44.61;94833.59;5004336;28;20511;-69
2022/09/14 04:31:07;;;;;;;3.78;3.05;;;;;;;20.46;44.53;94849.34;5002606;28;20026;-67
2022/09/14 04:33:33;;;;;;;3.45;2.60;;;;;;;20.55;44.70;94854.53;4979766;28;20034;-68
2022/09/14 04:36:27;;;;;;;6.00;2.78;;;;;;;20.83;44.64;94893.25;5001308;28;20046;-71
2022/09/14 04:38:53;;;;;;;5.97;2.88;;;;;;;20.18;44.45;94799.09;4989225;28;20593;-71
2022/09/14 04:41:21;;;;;;;4.57;2.47;;;;;;;20.84;44.67;94900.19;4981908;28;20110;-69
2022/09/14 04:43:49;;;;;;;3.40;2.72;;;;;;;20.76;44.52;94899.19;4985445;28;20042;-70
2022/09/14 04:46:16;;;;;;;4.55;2.83;;;;;;;20.22;44.46;94819.31;4987499;28;20136;-69
2022/09/14 04:48:41;;;;;;;4.57;3.00;;;;;;;20.80;44.81;94905.84;4999507;28;20022;-70
2022/09/14 04:51:08;;;;;;;5.90;2.88;;;;;;;20.88;44.79;94903.38;4985765;28;20085;-70
2022/09/14 04:53:35;;;;;;;3.83;2.60;;;;;;;20.56;44.62;94853.28;4985068;28;20321;-70
2022/09/14 04:56:01;;;;;;;3.60;2.80;;;;;;;20.93;44.65;94919.66;4947318;28;20065;-69
2022/09/14 04:58:27;;;;;;;4.25;2.65;;;;;;;20.81;44.99;94906.59;4991590;28;20124;-65
2022/09/14 05:00:54;;;;;;;4.75;2.80;;;;;;;20.96;44.61;94919.41;4975898;28;20030;-68
2022/09/14 05:03:20;;;;;;;4.07;2.90;;;;;;;20.94;45.10;94925.81;4989271;28;20057;-65
2022/09/14 05:05:46;;;;;;;4.03;2.90;;;;;;;20.73;45.01;94889.31;4987196;28;20120;-66
2022/09/14 05:08:11;;;;;;;6.97;3.35;;;;;;;20.84;44.85;94911.75;4980761;28;20105;-69
2022/09/14 05:10:37;;;;;;;5.20;3.15;;;;;;;21.04;44.99;94925.06;4981018;28;20356;-67
2022/09/14 05:13:02;;;;;;;4.18;3.10;;;;;;;20.83;44.98;94893.25;4986054;28;20084;-68
2022/09/14 05:15:28;;;;;;;7.20;3.30;;;;;;;20.79;45.21;94906.34;4982483;28;20049;-68
2022/09/14 05:17:53;;;;;;;6.25;3.28;;;;;;;20.42;45.11;94842.69;4999000;28;20608;-71
2022/09/14 05:20:19;;;;;;;6.45;3.53;;;;;;;20.89;45.07;94888.56;4988984;28;20593;-70
2022/09/14 05:22:48;;;;;;;6.13;3.70;;;;;;;20.92;44.43;94853.03;4994698;28;20034;-73
2022/09/14 05:25:14;;;;;;;6.55;3.78;;;;;;;21.15;45.43;94920.38;4993698;28;20484;-68
2022/09/14 05:27:39;;;;;;;6.63;3.63;;;;;;;20.82;45.67;94859.97;4986231;28;20015;-68
2022/09/14 05:30:05;;;;;;;8.48;4.03;;;;;;;21.23;46.97;94937.63;4982435;28;20526;-69
2022/09/14 05:32:30;;;;;;;5.18;3.80;;;;;;;21.47;47.10;94941.28;4981071;28;20096;-73
2022/09/14 05:34:56;;;;;;;7.63;3.95;;;;;;;21.60;46.42;94932.63;4983844;28;20042;-65
2022/09/14 05:37:21;;;;;;;7.47;4.57;;;;;;;20.85;46.67;94869.06;4981449;28;20101;-66
2022/09/14 05:39:47;;;;;;;8.80;5.05;;;;;;;21.20;45.94;94938.63;4984034;28;20499;-67
2022/09/14 05:42:12;;;;;;;8.43;4.85;;;;;;;20.95;45.57;94889.31;4987852;28;20046;-69
2022/09/14 05:44:38;;;;;;;9.18;5.28;;;;;;;21.22;45.90;94952.44;5002103;28;20042;-69
2022/09/14 05:47:04;;;;;;;9.68;5.63;;;;;;;21.42;45.27;94949.44;5001726;28;20041;-68
2022/09/14 05:49:29;;;;;;;11.00;6.03;;;;;;;21.52;45.08;94953.38;4984724;28;20043;-65
2022/09/14 05:51:54;;;;;;;9.65;5.57;;;;;;;21.22;45.36;94933.41;4981078;28;20030;-71
2022/09/14 05:54:20;;;;;;;8.15;5.57;;;;;;;21.28;44.93;94955.88;4986244;28;20624;-67
2022/09/14 05:56:45;;;;;;;10.60;5.93;;;;;;;21.31;45.00;94938.59;5001229;28;20435;-68
2022/09/14 05:59:11;;;;;;;7.95;4.90;;;;;;;21.71;44.43;94970.63;5001150;28;20049;-75
2022/09/14 06:01:36;;;;;;;7.50;4.78;;;;;;;21.88;43.82;94935.97;4966576;28;20047;-67
2022/09/14 06:04:02;;;;;;;8.68;5.28;;;;;;;22.18;42.88;94919.25;4982660;28;20480;-64
2022/09/14 06:06:28;;;;;;;11.93;5.50;;;;;;;22.03;43.51;94937.88;4984838;28;20415;-68
2022/09/14 06:08:55;;;;;;;8.55;4.95;;;;;;;21.92;43.16;94917.44;5001310;28;20042;-67
2022/09/14 06:11:25;;;;;;;11.05;5.53;;;;;;;21.83;43.52;94961.19;5003335;28;20515;-68
2022/09/14 06:13:51;;;;;;;8.98;4.70;;;;;;;21.88;42.77;94897.91;4977933;28;20052;-69
2022/09/14 06:16:18;;;;;;;8.32;4.65;;;;;;;22.22;42.86;94954.38;4964451;28;20479;-69
2022/09/14 06:18:44;;;;;;;11.20;4.90;;;;;;;22.26;42.63;94928.38;4967078;28;20017;-70
2022/09/14 06:21:11;;;;;;;10.27;4.78;;;;;;;22.49;42.21;94937.88;5005254;28;20709;-66
2022/09/14 06:23:36;;;;;;;9.43;4.55;;;;;;;22.43;42.74;94956.97;4979940;28;20081;-68
2022/09/14 06:26:03;;;;;;;8.15;4.18;;;;;;;22.04;42.78;94904.00;4965599;28;20059;-70
2022/09/14 06:28:29;;;;;;;6.43;3.78;;;;;;;21.99;42.40;94893.91;4984345;28;20034;-65
2022/09/14 06:30:54;;;;;;;7.25;3.75;;;;;;;22.01;42.42;94890.66;4996703;28;20027;-67
2022/09/14 06:33:20;;;;;;;9.07;3.90;;;;;;;22.35;42.61;94947.13;4988468;28;20053;-67
2022/09/14 06:35:54;;;;;;;6.35;3.55;;;;;;;22.43;42.05;94945.34;4988879;28;20081;-69
2022/09/14 06:38:20;;;;;;;8.65;4.07;;;;;;;22.93;41.43;94947.22;4990813;28;20068;-70
2022/09/14 06:40:58;;;;;;;6.43;3.90;;;;;;;23.02;41.30;94933.28;4986378;28;20501;-71
2022/09/14 06:43:28;;;;;;;8.63;4.43;;;;;;;22.29;42.24;94911.06;4988586;28;20069;-69
2022/09/14 06:46:10;;;;;;;6.30;3.83;;;;;;;23.15;40.56;94906.19;4989058;28;20015;-70
2022/09/14 06:48:41;;;;;;;4.95;3.67;;;;;;;23.73;39.58;94912.75;4988589;28;20037;-68
2022/09/14 06:51:36;;;;;;;9.20;4.63;;;;;;;23.93;39.96;94962.84;4995677;28;20029;-68
2022/09/14 06:54:05;;;;;;;9.20;4.07;;;;;;;24.01;39.64;94955.56;4993220;28;20046;-69
2022/09/14 06:56:41;;;;;;;8.40;4.55;;;;;;;23.32;39.78;94908.72;4968342;28;20041;-68
2022/09/14 06:59:08;;;;;;;10.15;4.40;;;;;;;23.54;40.62;94955.56;4977165;28;20031;-68
2022/09/14 07:01:33;;;;;;;8.15;4.13;;;;;;;22.95;41.25;94939.28;4985662;28;20050;-67
2022/09/14 07:04:00;;;;;;;9.20;4.50;;;;;;;22.90;41.50;94931.16;4983925;28;20436;-70
2022/09/14 07:06:28;;;;;;;11.55;4.50;;;;;;;23.48;40.10;94919.44;4968609;28;20030;-64
2022/09/14 07:08:54;;;;;;;7.88;4.07;;;;;;;23.22;41.32;94965.53;4985717;28;20038;-64
2022/09/14 07:11:22;;;;;;;7.70;4.10;;;;;;;23.57;39.97;94910.94;4984397;28;20042;-64
2022/09/14 07:13:47;;;;;;;8.02;3.90;;;;;;;23.17;39.90;94862.81;4982383;28;20094;-64
2022/09/14 07:16:13;;;;;;;6.82;4.18;;;;;;;23.21;40.79;94949.72;4984613;28;20090;-68
2022/09/14 07:45:33;;;;;;;5.13;3.25;;;;;;;23.90;39.87;94938.56;4986318;28;20033;-64
2022/09/14 07:47:59;;;;;;;10.00;3.80;;;;;;;24.02;39.31;94927.03;4991693;28;20046;-70
2022/09/14 07:50:25;;;;;;;8.57;4.10;;;;;;;24.54;38.68;94936.25;5000331;28;20109;-69
2022/09/14 07:52:50;;;;;;;9.05;3.78;;;;;;;24.57;38.31;94918.09;5003201;28;20115;-68
2022/09/14 07:55:16;;;;;;;11.70;4.10;;;;;;;24.70;38.58;94920.88;4994354;28;20570;-69
2022/09/14 07:57:42;;;;;;;8.77;3.78;;;;;;;24.90;38.18;94929.22;5003469;28;20186;-67
2022/09/14 08:00:09;;;;;;;8.00;4.07;;;;;;;24.89;37.62;94901.19;5001881;28;20577;-64
2022/09/14 08:02:35;;;;;;;6.95;4.20;;;;;;;24.58;37.89;94895.00;4990552;28;20040;-67
2022/09/14 08:05:01;;;;;;;5.90;3.50;;;;;;;24.42;37.87;94879.59;5003010;28;20117;-69
2022/09/14 08:07:26;;;;;;;6.55;3.33;;;;;;;24.83;37.21;94865.03;5002630;28;20038;-69
2022/09/14 08:09:51;;;;;;;10.35;3.97;;;;;;;25.21;37.67;94951.09;5002860;28;20026;-62
2022/09/14 08:12:17;;;;;;;7.45;3.30;;;;;;;25.01;37.89;94907.97;4997351;28;20030;-66
2022/09/14 08:14:42;;;;;;;4.95;3.20;;;;;;;25.41;37.71;94934.09;4982031;28;20065;-66
2022/09/14 08:17:09;;;;;;;5.72;3.35;;;;;;;25.42;37.88;94930.09;4969870;28;20434;-66
2022/09/14 08:19:35;;;;;;;5.05;3.50;;;;;;;24.74;38.85;94902.19;5002399;28;20080;-68
2022/09/14 08:22:00;;;;;;;5.47;4.07;;;;;;;24.50;38.98;94922.16;5002093;28;20034;-64
2022/09/14 08:24:26;;;;;;;9.00;4.00;;;;;;;23.88;39.43;94881.84;5003838;28;20485;-64
2022/09/14 08:26:52;;;;;;;7.35;4.50;;;;;;;23.83;39.56;94908.44;5001789;28;20030;-66
2022/09/14 08:29:18;;;;;;;7.53;3.72;;;;;;;24.25;38.74;94843.59;5002542;28;20073;-66
2022/09/14 08:31:44;;;;;;;7.18;4.63;;;;;;;25.10;36.93;94877.50;4995741;28;20034;-65
2022/09/14 08:34:09;;;;;;;7.63;3.90;;;;;;;23.76;39.47;94847.03;4981167;28;20511;-64
2022/09/14 08:36:37;;;;;;;8.45;3.78;;;;;;;23.98;39.60;94912.94;4964951;28;20021;-65
2022/09/14 08:39:05;;;;;;;7.90;4.00;;;;;;;24.56;39.16;94922.81;4980889;28;20128;-63
2022/09/14 08:41:42;;;;;;;5.35;3.50;;;;;;;24.73;38.76;94925.31;4964209;28;20049;-67
2022/09/14 08:44:10;;;;;;;7.35;3.38;;;;;;;25.34;37.89;94918.34;5000713;28;20566;-67
2022/09/14 08:46:54;;;;;;;5.68;3.75;;;;;;;24.82;38.33;94894.88;4991682;28;20044;-66
2022/09/14 08:49:51;;;;;;;6.55;3.60;;;;;;;25.00;38.11;94884.63;4964410;28;20034;-67
2022/09/14 08:52:22;;;;;;;7.90;3.85;;;;;;;24.30;39.71;94921.94;4965924;28;20046;-64
2022/09/14 08:54:52;;;;;;;8.75;3.47;;;;;;;25.15;37.37;94846.59;4982335;28;20035;-66
2022/09/14 08:57:21;;;;;;;5.38;3.35;;;;;;;24.42;38.57;94869.44;4977391;28;20045;-67
2022/09/14 09:00:12;;;;;;;5.40;3.63;;;;;;;24.25;39.45;94914.56;4956950;28;20185;-68
2022/09/14 09:02:57;;;;;;;5.82;3.45;;;;;;;24.66;38.52;94876.75;4973919;28;20132;-66
2022/09/14 09:05:28;;;;;;;6.57;3.90;;;;;;;24.42;39.39;94909.63;4978993;28;20080;-67
2022/09/14 09:08:15;;;;;;;5.68;3.63;;;;;;;24.05;39.76;94901.44;4981170;28;20038;-68
2022/09/14 09:10:41;;;;;;;8.30;3.80;;;;;;;24.35;39.25;94891.13;4964498;28;20046;-68
2022/09/14 09:13:10;;;;;;;6.85;3.50;;;;;;;24.19;39.71;94900.25;4982094;28;20098;-68
2022/09/14 09:15:41;;;;;;;7.78;3.65;;;;;;;23.86;39.97;94839.97;4958627;28;20137;-69
2022/09/14 09:18:10;;;;;;;8.45;3.83;;;;;;;24.21;39.95;94891.56;4983692;28;20827;-66
2022/09/14 09:20:42;;;;;;;8.15;3.72;;;;;;;24.15;40.11;94871.78;4964159;28;20035;-67
2022/09/14 09:23:21;;;;;;;7.35;3.90;;;;;;;24.62;39.13;94898.91;4963704;28;20061;-67
2022/09/14 09:26:12;;;;;;;7.05;4.13;;;;;;;24.18;40.15;94887.84;4967870;28;20031;-67
2022/09/14 09:28:44;;;;;;;6.88;4.03;;;;;;;24.21;39.00;94809.69;4984440;28;20582;-68
2022/09/14 09:31:10;;;;;;;6.30;3.55;;;;;;;23.97;39.19;94807.78;4965011;28;20152;-70
2022/09/14 09:33:35;;;;;;;5.07;3.60;;;;;;;24.53;39.07;94895.84;4976630;28;20534;-69
2022/09/14 09:36:01;;;;;;;7.97;3.83;;;;;;;25.34;38.32;94901.94;4985418;28;20050;-66
2022/09/14 09:38:27;;;;;;;5.85;3.40;;;;;;;25.05;37.92;94836.59;4977870;28;20034;-67
2022/09/14 09:41:20;;;;;;;6.22;3.95;;;;;;;25.37;38.11;94887.94;5001089;28;20044;-67
2022/09/14 09:44:08;;;;;;;6.97;3.28;;;;;;;24.40;38.91;94827.53;4983799;28;20427;-66
2022/09/14 09:46:52;;;;;;;6.15;3.60;;;;;;;24.88;38.82;94888.78;5000907;28;20041;-65
2022/09/14 09:49:44;;;;;;;5.28;3.20;;;;;;;24.94;38.93;94875.75;4983520;28;20924;-67
2022/09/14 09:52:14;;;;;;;5.50;3.33;;;;;;;24.87;39.40;94870.94;4979104;28;20095;-67
2022/09/14 09:54:40;;;;;;;6.95;3.80;;;;;;;25.14;38.88;94883.41;5001732;28;20037;-67
2022/09/14 09:57:17;;;;;;;6.07;3.70;;;;;;;25.00;38.13;94824.53;4983341;28;20300;-66
2022/09/14 09:59:45;;;;;;;5.25;3.40;;;;;;;25.44;38.36;94873.66;4980830;28;20049;-67
2022/09/14 10:02:27;;;;;;;7.03;3.67;;;;;;;25.60;38.30;94869.09;4962409;28;20348;-70
2022/09/14 10:05:05;;;;;;;5.88;3.53;;;;;;;26.21;37.36;94861.84;4963581;28;20117;-73
2022/09/14 10:07:35;;;;;;;6.10;3.92;;;;;;;25.85;37.90;94841.00;4981060;28;20049;-72
2022/09/14 10:10:06;;;;;;;6.38;3.85;;;;;;;25.29;39.00;94856.31;4981513;28;20220;-68
2022/09/14 10:12:32;;;;;;;8.45;3.83;;;;;;;25.01;38.87;94826.00;4995917;28;20120;-67
2022/09/14 10:15:15;;;;;;;6.30;3.70;;;;;;;25.25;38.78;94838.75;4981860;28;21207;-65
2022/09/14 10:18:01;;;;;;;4.47;3.55;;;;;;;25.52;38.64;94846.41;4957369;28;20038;-72
2022/09/14 10:20:52;;;;;;;6.55;4.20;;;;;;;25.30;38.90;94841.34;4987122;28;20026;-72
2022/09/14 10:23:27;;;;;;;6.43;3.75;;;;;;;25.14;38.84;94806.88;5003781;28;20283;-71
2022/09/14 10:26:12;;;;;;;5.45;3.65;;;;;;;25.47;38.92;94839.03;4982629;28;20037;-70
2022/09/14 10:28:39;;;;;;;6.55;3.92;;;;;;;25.30;38.81;94808.56;5000185;28;20540;-73
2022/09/14 10:31:10;;;;;;;5.10;3.67;;;;;;;25.69;38.66;94838.63;4990276;28;20106;-70
2022/09/14 10:33:36;;;;;;;5.82;3.38;;;;;;;25.45;39.13;94836.09;4999003;28;20207;-70
2022/09/14 10:36:16;;;;;;;5.60;3.55;;;;;;;25.79;38.60;94826.00;4998108;28;20527;-69
2022/09/14 10:39:15;;;;;;;5.93;3.35;;;;;;;25.79;38.57;94821.97;4990321;28;20043;-70
2022/09/14 10:42:07;;;;;;;5.13;3.08;;;;;;;25.83;38.42;94811.44;4978718;28;20066;-66
2022/09/14 10:44:47;;;;;;;6.97;3.00;;;;;;;25.72;38.01;94832.09;4968506;28;20064;-70
2022/09/14 10:47:22;;;;;;;5.88;3.13;;;;;;;25.95;38.19;94829.09;4970458;28;20057;-69
2022/09/14 10:50:00;;;;;;;6.10;2.95;;;;;;;25.72;37.35;94810.22;5003052;28;20073;-71
2022/09/14 10:52:26;;;;;;;4.25;3.17;;;;;;;26.07;37.28;94818.63;4970775;28;20042;-71
2022/09/14 10:55:30;;;;;;;5.90;3.00;;;;;;;26.35;37.10;94816.75;5003175;28;20037;-68
2022/09/14 10:58:19;;;;;;;3.17;2.67;;;;;;;26.21;37.37;94806.38;5002356;28;20026;-70
2022/09/14 11:00:55;;;;;;;5.83;3.07;;;;;;;26.14;37.62;94813.22;4960399;28;20015;-69
2022/09/14 11:03:29;;;;;;;4.35;2.72;;;;;;;26.33;37.57;94814.56;4991616;28;20766;-67
2022/09/14 11:06:00;;;;;;;4.50;2.90;;;;;;;26.67;36.99;94815.22;4995654;28;20041;-71
2022/09/14 11:08:40;;;;;;;4.43;2.72;;;;;;;26.57;36.69;94813.50;4979651;28;20430;-69
2022/09/14 11:11:31;;;;;;;8.57;2.83;;;;;;;26.98;36.42;94817.69;4962169;28;20034;-67
2022/09/14 11:14:16;;;;;;;4.10;2.72;;;;;;;26.86;35.84;94800.03;5003085;28;20037;-66
2022/09/14 11:17:15;;;;;;;3.70;2.35;;;;;;;26.61;36.02;94816.66;4975644;28;20058;-69
2022/09/14 11:20:02;;;;;;;4.78;2.35;;;;;;;26.75;35.99;94804.34;4991881;28;20053;-69
2022/09/14 11:22:43;;;;;;;5.28;2.55;;;;;;;26.93;35.55;94777.44;4988534;28;20152;-68
2022/09/14 11:25:15;;;;;;;3.75;1.90;;;;;;;27.07;34.63;94811.72;4986208;28;20514;-68
2022/09/14 11:27:49;;;;;;;3.42;1.98;;;;;;;26.93;34.73;94810.34;4986559;28;20118;-65
2022/09/14 11:30:22;;;;;;;2.72;1.73;;;;;;;26.97;34.58;94804.53;4969626;28;20037;-68
2022/09/14 11:33:02;;;;;;;5.03;1.85;;;;;;;26.95;33.63;94774.94;4984212;28;20096;-67
2022/09/14 11:35:51;;;;;;;2.95;1.63;;;;;;;27.12;34.26;94772.47;5002797;28;20050;-68
2022/09/14 11:38:22;;;;;;;3.80;1.52;;;;;;;27.46;34.14;94794.97;4977863;28;20137;-68
2022/09/14 11:41:04;;;;;;;3.45;1.60;;;;;;;27.06;33.56;94725.28;4984554;28;20034;-69
2022/09/14 11:43:33;;;;;;;4.70;1.73;;;;;;;27.08;33.90;94761.09;4969235;28;20037;-67
2022/09/14 11:46:25;;;;;;;2.75;1.60;;;;;;;27.35;33.69;94721.22;4984450;28;20040;-66
2022/09/14 11:48:53;;;;;;;2.70;1.60;;;;;;;27.52;33.41;94737.94;5002298;28;20576;-69
2022/09/14 11:51:31;;;;;;;3.78;1.80;;;;;;;27.44;33.09;94743.38;5002443;28;20045;-69
2022/09/14 11:53:57;;;;;;;3.60;1.60;;;;;;;27.55;33.74;94731.38;4984960;28;20038;-69
2022/09/14 11:56:27;;;;;;;2.25;1.38;;;;;;;28.02;33.87;94762.63;5002007;28;20128;-68
2022/09/14 11:58:54;;;;;;;5.22;1.50;;;;;;;27.93;32.12;94771.38;4984456;28;20117;-69
2022/09/14 12:01:28;;;;;;;2.00;1.50;;;;;;;27.92;32.74;94767.91;4948998;28;20133;-68
2022/09/14 12:03:58;;;;;;;3.35;1.50;;;;;;;27.98;32.09;94763.00;4949870;28;20451;-69
2022/09/14 12:06:29;;;;;;;4.75;1.55;;;;;;;28.37;32.51;94763.25;4982536;28;20022;-71
2022/09/14 12:09:16;;;;;;;2.13;1.30;;;;;;;28.14;32.16;94764.50;4981505;28;20133;-72
2022/09/14 12:11:44;;;;;;;3.78;1.50;;;;;;;28.33;32.09;94762.16;4986259;28;20080;-67
2022/09/14 12:14:28;;;;;;;2.33;1.27;;;;;;;27.96;31.79;94732.59;4968284;28;20038;-68
2022/09/14 12:17:16;;;;;;;1.92;1.27;;;;;;;27.97;31.55;94719.59;4951348;28;20096;-71
2022/09/14 12:19:43;;;;;;;2.70;1.20;;;;;;;28.17;31.44;94757.91;4966927;28;20109;-69